createdAt,value
2023-03-01T00:01:43.909Z,31.50
2023-03-01T00:04:11.799Z,30.40
2023-03-01T00:06:39.675Z,27.20
2023-03-01T00:09:07.841Z,28.90
2023-03-01T00:11:35.906Z,30.60
2023-03-01T00:14:06.083Z,29.70
2023-03-01T00:16:39.743Z,29.10
2023-03-01T00:19:09.299Z,30.00
2023-03-01T00:21:37.202Z,28.20
2023-03-01T00:24:05.666Z,27.30
2023-03-01T00:26:33.572Z,27.80
2023-03-01T00:29:01.945Z,27.10
2023-03-01T00:31:32.467Z,26.30
2023-03-01T00:34:03.716Z,24.80
2023-03-01T00:36:34.956Z,26.70
2023-03-01T00:39:05.292Z,25.60
2023-03-01T00:41:35.102Z,26.20
2023-03-01T00:44:03.157Z,26.50
2023-03-01T00:46:32.001Z,24.30
2023-03-01T00:49:03.091Z,26.00
2023-03-01T00:51:32.194Z,24.60
2023-03-01T00:54:02.219Z,21.00
2023-03-01T00:56:31.597Z,19.30
2023-03-01T00:58:59.677Z,21.00
2023-03-01T06:19:33.528Z,12.50
2023-03-01T06:22:01.269Z,14.20
2023-03-01T06:24:30.054Z,17.00
2023-03-01T06:26:57.953Z,16.70
2023-03-01T06:29:25.708Z,14.80
2023-03-01T06:31:53.788Z,16.40
2023-03-01T06:34:22.836Z,12.70
2023-03-01T06:36:50.696Z,15.00
2023-03-01T06:39:19.208Z,17.20
2023-03-01T06:41:47.067Z,17.90
2023-03-01T06:44:14.983Z,21.80
2023-03-01T06:46:42.875Z,18.90
2023-03-01T06:49:10.724Z,17.60
2023-03-01T06:51:38.748Z,17.90
2023-03-01T06:54:06.831Z,17.60
2023-03-01T06:56:34.874Z,16.80
2023-03-01T06:59:06.486Z,17.30
2023-03-01T07:01:34.565Z,18.60
2023-03-01T07:04:02.484Z,19.30
2023-03-01T07:06:30.631Z,18.70
2023-03-01T07:08:58.814Z,19.30
2023-03-01T07:11:26.685Z,19.00
2023-03-01T07:13:54.505Z,19.50
2023-03-01T07:16:22.681Z,21.90
2023-03-01T07:18:50.655Z,18.30
2023-03-01T07:21:18.373Z,15.40
2023-03-01T07:23:49.944Z,21.10
2023-03-01T07:26:19.374Z,19.80
2023-03-01T07:28:47.362Z,15.70
2023-03-01T07:31:15.721Z,17.90
2023-03-01T07:33:43.462Z,18.40
2023-03-01T07:36:13.888Z,13.30
2023-03-01T07:38:41.604Z,16.50
2023-03-01T07:41:09.533Z,18.10
2023-03-01T07:43:37.303Z,19.40
2023-03-01T07:46:05.701Z,15.00
2023-03-01T07:48:39.129Z,16.90
2023-03-01T07:51:11.103Z,19.70
2023-03-01T07:53:39.248Z,18.70
2023-03-01T07:56:09.556Z,20.70
2023-03-01T07:58:39.698Z,16.40
2023-03-01T08:01:09.791Z,16.30
2023-03-01T08:03:38.361Z,17.20
2023-03-01T08:06:08.498Z,13.50
2023-03-01T08:08:36.886Z,17.40
2023-03-01T08:11:51.245Z,19.00
2023-03-01T08:17:24.293Z,17.10
2023-03-01T08:19:52.201Z,14.80
2023-03-01T08:22:20.099Z,15.80
2023-03-01T08:24:48.051Z,19.10
2023-03-01T08:27:17.532Z,16.10
2023-03-01T08:29:45.443Z,14.90
2023-03-01T08:32:13.452Z,14.70
2023-03-01T08:34:42.560Z,19.60
2023-03-01T08:37:11.055Z,14.70
2023-03-01T08:39:38.869Z,17.70
2023-03-01T08:42:06.617Z,15.30
2023-03-01T08:44:36.083Z,13.90
2023-03-01T08:47:05.484Z,16.20
2023-03-01T08:49:33.832Z,12.80
2023-03-01T08:52:03.440Z,16.10
2023-03-01T08:54:31.615Z,16.70
2023-03-01T08:57:00.274Z,15.20
2023-03-01T08:59:28.203Z,12.30
2023-03-01T09:01:56.044Z,15.10
2023-03-01T09:04:24.020Z,15.60
2023-03-01T09:06:51.914Z,13.30
2023-03-01T09:09:19.767Z,13.80
2023-03-01T09:11:48.130Z,15.80
2023-03-01T09:14:16.013Z,14.70
2023-03-01T09:16:44.236Z,14.30
2023-03-01T09:19:12.751Z,16.50
2023-03-01T09:21:41.433Z,15.30
2023-03-01T09:24:15.791Z,14.50
2023-03-01T09:26:44.189Z,16.20
2023-03-01T09:29:11.988Z,14.10
2023-03-01T09:31:40.072Z,12.70
2023-03-01T09:34:09.016Z,14.20
2023-03-01T09:36:36.917Z,15.00
2023-03-01T09:39:07.055Z,11.60
2023-03-01T09:41:48.740Z,11.80
2023-03-01T09:44:28.777Z,12.80
2023-03-01T09:46:58.278Z,13.20
2023-03-01T09:49:31.603Z,13.80
2023-03-01T09:52:20.358Z,13.50
2023-03-01T09:54:53.971Z,14.30
2023-03-01T09:57:29.583Z,14.70
2023-03-01T10:00:07.380Z,14.80
2023-03-01T10:05:56.458Z,13.00
2023-03-01T10:08:37.573Z,13.20
2023-03-01T10:11:22.132Z,12.20
2023-03-01T10:14:15.651Z,12.80
2023-03-01T10:16:53.784Z,14.30
2023-03-01T10:19:29.450Z,13.10
2023-03-01T10:22:03.883Z,13.40
2023-03-01T10:24:36.369Z,12.20
2023-03-01T10:27:27.464Z,12.90
2023-03-01T10:30:28.902Z,10.80
2023-03-01T10:32:58.436Z,12.70
2023-03-01T10:35:29.884Z,13.00
2023-03-01T10:38:05.507Z,7.60
2023-03-01T10:40:35.397Z,10.60
2023-03-01T10:43:06.215Z,10.00
2023-03-01T10:45:39.698Z,10.90
2023-03-01T10:48:20.483Z,9.50
2023-03-01T10:50:52.260Z,11.20
2023-03-01T10:53:26.014Z,12.90
2023-03-01T10:56:23.506Z,10.40
2023-03-01T10:59:01.764Z,10.30
2023-03-01T11:01:36.871Z,7.90
2023-03-01T11:04:07.528Z,9.00
2023-03-01T11:06:37.197Z,9.80
2023-03-01T11:09:17.425Z,9.50
2023-03-01T11:11:45.757Z,10.00
2023-03-01T11:14:37.851Z,9.70
2023-03-01T11:17:14.149Z,8.70
2023-03-01T11:19:45.218Z,8.90
2023-03-01T11:22:22.386Z,10.60
2023-03-01T11:25:09.088Z,8.20
2023-03-01T11:27:44.384Z,10.10
2023-03-01T11:30:28.385Z,8.90
2023-03-01T11:33:05.465Z,9.10
2023-03-01T11:35:36.856Z,9.40
2023-03-01T11:38:26.431Z,9.60
2023-03-01T11:41:25.692Z,8.10
2023-03-01T11:44:12.987Z,8.70
2023-03-01T11:47:08.848Z,9.60
2023-03-01T11:49:48.854Z,9.30
2023-03-01T11:52:19.378Z,9.80
2023-03-01T11:55:19.072Z,9.10
2023-03-01T11:57:46.850Z,9.40
2023-03-01T12:00:26.918Z,9.20
2023-03-01T12:03:07.894Z,8.60
2023-03-01T12:05:54.134Z,10.70
2023-03-01T12:08:31.250Z,10.30
2023-03-01T12:11:22.409Z,7.60
2023-03-01T12:13:52.945Z,9.50
2023-03-01T12:16:53.885Z,9.40
2023-03-01T12:19:53.954Z,11.00
2023-03-01T12:22:32.419Z,9.80
2023-03-01T12:25:00.210Z,10.50
2023-03-01T12:27:31.087Z,10.60
2023-03-01T12:30:01.886Z,11.40
2023-03-01T12:33:03.358Z,10.60
2023-03-01T12:35:36.919Z,11.90
2023-03-01T12:38:42.181Z,12.10
2023-03-01T12:41:29.110Z,10.20
2023-03-01T12:44:32.840Z,9.90
2023-03-01T12:47:00.536Z,10.50
2023-03-01T12:49:56.371Z,10.70
2023-03-01T12:52:27.249Z,11.80
2023-03-01T12:54:57.491Z,10.90
2023-03-01T12:57:38.435Z,10.80
2023-03-01T13:00:08.977Z,10.60
2023-03-01T13:02:55.334Z,11.30
2023-03-01T13:05:49.130Z,10.90
2023-03-01T13:08:21.579Z,11.50
2023-03-01T13:11:06.810Z,10.40
2023-03-01T13:13:34.588Z,11.50
2023-03-01T13:16:41.123Z,13.10
2023-03-01T13:19:17.127Z,8.90
2023-03-01T13:21:46.767Z,11.80
2023-03-01T13:24:29.959Z,11.00
2023-03-01T13:27:16.522Z,10.80
2023-03-01T13:29:50.216Z,11.10
2023-03-01T13:32:34.323Z,9.80
2023-03-01T13:35:16.119Z,10.30
2023-03-01T13:37:45.454Z,11.50
2023-03-01T13:40:20.589Z,9.70
2023-03-01T13:43:05.380Z,10.90
2023-03-01T13:45:40.137Z,11.70
2023-03-01T13:48:16.540Z,10.40
2023-03-01T13:50:53.159Z,8.80
2023-03-01T13:53:24.419Z,11.40
2023-03-01T13:55:57.043Z,9.80
2023-03-01T13:58:31.924Z,9.20
2023-03-01T14:01:09.793Z,9.90
2023-03-01T14:03:43.024Z,9.30
2023-03-01T14:06:21.863Z,8.10
2023-03-01T14:08:53.314Z,9.60
2023-03-01T14:14:46.255Z,9.30
2023-03-01T14:17:38.060Z,9.40
2023-03-01T14:20:33.463Z,9.20
2023-03-01T14:23:09.929Z,9.60
2023-03-01T14:25:39.842Z,9.40
2023-03-01T14:28:24.249Z,10.50
2023-03-01T14:30:54.927Z,9.50
2023-03-01T14:33:30.203Z,8.20
2023-03-01T14:36:13.429Z,8.90
2023-03-01T14:38:47.854Z,8.50
2023-03-01T14:41:21.170Z,8.70
2023-03-01T14:43:53.519Z,7.90
2023-03-01T14:46:33.438Z,9.20
2023-03-01T14:49:21.150Z,7.70
2023-03-01T14:52:05.299Z,8.90
2023-03-01T14:54:44.033Z,7.60
2023-03-01T14:57:22.711Z,7.00
2023-03-01T14:59:56.305Z,7.00
2023-03-01T15:02:29.142Z,7.40
2023-03-01T15:05:08.090Z,7.00
2023-03-01T15:07:41.195Z,8.10
2023-03-01T15:10:20.676Z,7.00
2023-03-01T15:12:48.794Z,8.10
2023-03-01T15:15:37.997Z,8.30
2023-03-01T15:18:16.798Z,7.00
2023-03-01T15:20:45.619Z,7.80
2023-03-01T15:23:30.136Z,8.70
2023-03-01T15:25:59.411Z,7.60
2023-03-01T15:28:30.632Z,8.40
2023-03-01T15:31:20.741Z,9.20
2023-03-01T15:33:49.040Z,8.10
2023-03-01T15:36:41.812Z,7.90
2023-03-01T15:39:28.186Z,7.80
2023-03-01T15:41:56.562Z,10.10
2023-03-01T15:44:35.031Z,8.30
2023-03-01T15:47:24.541Z,8.80
2023-03-01T15:49:55.848Z,7.10
2023-03-01T15:52:30.150Z,8.60
2023-03-01T15:55:03.814Z,6.70
2023-03-01T15:57:31.803Z,8.20
2023-03-01T15:59:59.754Z,8.50
2023-03-01T16:02:27.574Z,9.90
2023-03-01T16:04:57.676Z,9.00
2023-03-01T16:07:27.968Z,7.10
2023-03-01T16:09:55.925Z,8.20
2023-03-01T16:12:25.270Z,7.40
2023-03-01T16:14:55.002Z,9.20
2023-03-01T16:17:23.030Z,7.90
2023-03-01T16:19:51.094Z,9.10
2023-03-01T16:22:22.127Z,10.00
2023-03-01T16:24:49.941Z,10.90
2023-03-01T16:27:17.778Z,10.10
2023-03-01T16:29:45.560Z,9.80
2023-03-01T16:32:13.345Z,9.60
2023-03-01T16:34:41.557Z,9.20
2023-03-01T16:37:09.320Z,11.20
2023-03-01T16:39:39.780Z,10.20
2023-03-01T16:42:07.730Z,11.00
2023-03-01T16:44:35.577Z,10.10
2023-03-01T16:47:03.447Z,9.80
2023-03-01T16:49:31.309Z,9.80
2023-03-01T16:52:00.404Z,9.90
2023-03-01T16:54:28.207Z,9.50
2023-03-01T16:56:56.396Z,11.40
2023-03-01T16:59:24.322Z,10.90
2023-03-01T17:01:52.355Z,10.70
2023-03-01T17:04:20.343Z,11.20
2023-03-01T17:06:49.647Z,11.90
2023-03-01T17:09:18.262Z,14.60
2023-03-01T17:11:46.107Z,12.90
2023-03-01T17:14:13.891Z,14.30
2023-03-01T17:16:41.783Z,14.70
2023-03-01T17:19:09.760Z,15.90
2023-03-01T17:21:38.088Z,16.80
2023-03-01T17:24:06.154Z,17.10
2023-03-01T17:26:34.032Z,18.70
2023-03-01T17:29:02.498Z,18.00
2023-03-01T17:31:30.600Z,17.70
2023-03-01T17:34:01.185Z,16.80
2023-03-01T17:36:29.467Z,18.60
2023-03-01T17:38:57.333Z,19.50
2023-03-01T17:41:25.298Z,19.20
2023-03-01T17:43:53.060Z,20.40
2023-03-01T17:46:20.972Z,19.80
2023-03-01T17:48:50.230Z,19.10
2023-03-01T17:51:18.189Z,20.50
2023-03-01T17:53:46.157Z,19.60
2023-03-01T17:56:14.031Z,18.40
2023-03-01T17:58:44.972Z,20.50
2023-03-01T18:01:15.915Z,25.40
2023-03-01T18:03:46.577Z,23.70
2023-03-01T18:06:18.920Z,23.50
2023-03-01T18:08:48.926Z,25.30
2023-03-01T18:11:18.945Z,27.90
2023-03-01T18:13:47.905Z,30.00
2023-03-01T18:16:17.531Z,30.80
2023-03-01T18:18:46.338Z,29.40
2023-03-01T18:21:14.710Z,27.00
2023-03-01T18:23:42.578Z,26.20
2023-03-01T18:26:13.126Z,27.10
2023-03-01T18:28:40.870Z,25.20
2023-03-01T18:31:13.506Z,23.80
2023-03-01T18:33:41.614Z,25.00
2023-03-01T18:36:19.332Z,25.40
2023-03-01T18:38:48.034Z,23.00
2023-03-01T18:41:16.688Z,24.00
2023-03-01T18:43:44.645Z,23.90
2023-03-01T18:46:12.578Z,24.70
2023-03-01T18:48:40.687Z,24.20
2023-03-01T18:51:12.493Z,23.20
2023-03-01T18:53:40.619Z,22.90
2023-03-01T18:56:09.920Z,21.50
2023-03-01T18:58:38.734Z,24.70
2023-03-01T19:01:08.368Z,24.20
2023-03-01T19:03:36.333Z,26.20
2023-03-01T19:06:05.372Z,27.90
2023-03-01T19:08:33.338Z,26.10
2023-03-01T19:11:03.977Z,27.80
2023-03-01T19:13:34.085Z,25.40
2023-03-01T19:16:14.212Z,30.30
2023-03-01T19:18:50.275Z,29.60
2023-03-01T19:21:20.319Z,31.80
2023-03-01T19:23:49.342Z,32.30
2023-03-01T19:26:20.046Z,32.40
2023-03-01T19:28:48.635Z,32.30
2023-03-01T19:31:20.014Z,32.80
2023-03-01T19:33:47.930Z,32.40
2023-03-01T19:36:16.418Z,31.10
2023-03-01T19:38:44.304Z,30.80
2023-03-01T19:41:15.731Z,30.90
2023-03-01T19:43:45.026Z,30.10
2023-03-01T19:46:13.796Z,29.00
2023-03-01T19:48:41.947Z,30.00
2023-03-01T19:51:09.896Z,30.30
2023-03-01T19:53:39.966Z,32.70
2023-03-01T19:56:09.049Z,31.60
2023-03-01T19:58:39.058Z,32.50
2023-03-01T20:01:15.711Z,32.60
2023-03-01T20:03:44.227Z,32.70
2023-03-01T20:06:18.851Z,34.80
2023-03-01T20:08:46.724Z,34.00
2023-03-01T20:11:16.631Z,33.70
2023-03-01T20:13:45.009Z,33.30
2023-03-01T20:16:17.737Z,33.70
2023-03-01T20:18:45.903Z,31.70
2023-03-01T20:21:24.456Z,31.90
2023-03-01T20:23:53.829Z,35.10
2023-03-01T20:26:23.340Z,35.30
2023-03-01T20:28:54.227Z,34.90
2023-03-01T20:31:28.829Z,35.10
2023-03-01T20:34:00.206Z,34.60
2023-03-01T20:36:28.406Z,36.20
2023-03-01T20:38:56.580Z,37.90
2023-03-01T20:41:28.733Z,35.70
2023-03-01T20:43:58.768Z,35.10
2023-03-01T20:46:27.583Z,33.40
2023-03-01T20:48:55.380Z,32.80
2023-03-01T20:51:23.756Z,31.60
2023-03-01T20:53:52.057Z,32.40
2023-03-01T20:56:21.746Z,34.40
2023-03-01T20:58:50.121Z,33.60
2023-03-01T21:01:21.467Z,33.30
2023-03-01T21:03:49.370Z,32.90
2023-03-01T21:06:17.708Z,35.30
2023-03-01T21:08:45.780Z,34.80
2023-03-01T21:11:13.577Z,36.20
2023-03-01T21:13:41.920Z,34.80
2023-03-01T21:16:14.055Z,34.10
2023-03-01T21:18:42.358Z,33.20
2023-03-01T21:21:13.340Z,33.50
2023-03-01T21:23:42.614Z,34.80
2023-03-01T21:26:12.178Z,32.80
2023-03-01T21:28:41.295Z,34.80
2023-03-01T21:31:17.753Z,35.40
2023-03-01T21:33:51.332Z,35.30
2023-03-01T21:36:20.154Z,33.50
2023-03-01T21:38:49.352Z,34.20
2023-03-01T21:41:21.189Z,31.90
2023-03-01T21:46:20.629Z,32.60
2023-03-01T21:48:50.848Z,31.90
2023-03-01T21:51:21.373Z,33.30
2023-03-01T21:53:50.885Z,26.80
2023-03-01T21:56:21.612Z,33.00
2023-03-01T21:58:50.399Z,31.00
2023-03-01T22:01:21.848Z,30.90
2023-03-01T22:03:49.750Z,33.20
2023-03-01T22:06:22.788Z,31.10
2023-03-01T22:08:53.780Z,32.40
2023-03-01T22:11:24.145Z,30.80
2023-03-01T22:13:53.039Z,33.40
2023-03-01T22:16:24.213Z,31.20
2023-03-01T22:18:52.373Z,33.30
2023-03-01T22:21:21.552Z,33.80
2023-03-01T22:23:49.388Z,29.50
2023-03-01T22:26:41.895Z,32.80
2023-03-01T22:29:12.805Z,30.60
2023-03-01T22:31:41.437Z,28.70
2023-03-01T22:34:10.094Z,30.20
2023-03-01T22:36:39.464Z,31.90
2023-03-01T22:39:08.369Z,27.80
2023-03-01T22:41:44.838Z,32.80
2023-03-01T22:44:15.087Z,28.00
2023-03-01T22:46:43.668Z,32.60
2023-03-01T22:49:12.167Z,33.30
2023-03-01T22:51:42.546Z,34.20
2023-03-01T22:54:11.417Z,30.50
2023-03-01T22:56:40.730Z,32.80
2023-03-01T22:59:12.285Z,31.20
2023-03-01T23:04:09.285Z,28.80
2023-03-01T23:06:50.464Z,31.60
2023-03-01T23:09:21.946Z,31.30
2023-03-01T23:11:50.960Z,31.70
2023-03-01T23:14:19.706Z,31.60
2023-03-01T23:16:48.751Z,33.50
2023-03-01T23:19:16.853Z,31.30
2023-03-01T23:21:50.019Z,33.50
2023-03-01T23:24:19.755Z,29.60
2023-03-01T23:26:53.528Z,29.50
2023-03-01T23:29:22.621Z,32.50
2023-03-01T23:31:50.766Z,31.50
2023-03-01T23:34:19.374Z,30.40
2023-03-01T23:36:47.254Z,31.60
2023-03-01T23:39:15.101Z,33.30
2023-03-01T23:41:43.073Z,31.60
2023-03-01T23:44:15.232Z,28.80
2023-03-01T23:46:43.830Z,30.70
2023-03-01T23:49:14.112Z,29.30
2023-03-01T23:51:44.766Z,31.70
2023-03-01T23:54:14.681Z,31.80
2023-03-01T23:56:43.884Z,29.30
2023-03-01T23:59:18.916Z,29.10
